Time;durP1;ratioP1;P1;durP2;ratioP2;P2;SDS_P1;SDS_P2;PMS_P1;PMS_P2;Temp;Humidity;BMP_temperature;BMP_pressure;BME280_temperature;BME280_humidity;BME280_pressure;Samples;Min_cycle;Max_cycle;Signal;HPM_P1;HPM_P2
2023/09/09 00:00:32;;;;;;;184.02;88.20;;;;;;;16.67;100.00;101757.28;5054445;28;20041;-77
2023/09/09 00:02:58;;;;;;;187.27;91.18;;;;;;;16.62;100.00;101751.53;5071089;28;20067;-78
2023/09/09 00:05:23;;;;;;;211.10;95.45;;;;;;;16.62;100.00;101762.28;5071580;28;20128;-77
2023/09/09 00:07:48;;;;;;;197.70;93.40;;;;;;;16.61;100.00;101764.09;5070877;28;20469;-77
2023/09/09 00:10:14;;;;;;;170.60;81.95;;;;;;;16.57;100.00;101763.59;5072162;28;20059;-77
2023/09/09 00:12:39;;;;;;;186.80;89.60;;;;;;;16.56;100.00;101761.91;5071994;28;20033;-77
2023/09/09 00:15:07;;;;;;;162.70;77.38;;;;;;;16.56;100.00;101758.38;5072177;28;20506;-77
2023/09/09 00:17:32;;;;;;;214.95;97.65;;;;;;;16.57;100.00;101766.28;5054464;28;20036;-77
2023/09/09 00:19:57;;;;;;;152.70;77.60;;;;;;;16.59;100.00;101765.28;5071989;28;20361;-77
2023/09/09 00:22:23;;;;;;;158.35;73.05;;;;;;;16.58;100.00;101764.44;5071843;28;20045;-77
2023/09/09 00:24:48;;;;;;;172.35;84.22;;;;;;;16.59;100.00;101767.97;5070842;28;20032;-77
2023/09/09 00:27:13;;;;;;;194.35;93.07;;;;;;;16.59;100.00;101762.59;5071763;28;20559;-77
2023/09/09 00:29:39;;;;;;;158.82;78.57;;;;;;;16.57;100.00;101762.75;5072244;28;20418;-77
2023/09/09 00:32:04;;;;;;;136.82;68.50;;;;;;;16.55;100.00;101762.88;5072097;28;20062;-77
2023/09/09 00:34:30;;;;;;;165.70;83.20;;;;;;;16.55;100.00;101752.13;5072141;28;20020;-77
2023/09/09 00:36:56;;;;;;;142.02;72.68;;;;;;;16.52;100.00;101760.50;5072114;28;20056;-77
2023/09/09 00:39:21;;;;;;;159.13;79.55;;;;;;;16.49;100.00;101752.78;5071606;28;20036;-77
2023/09/09 00:41:46;;;;;;;161.52;81.40;;;;;;;16.46;100.00;101744.19;5072096;28;20166;-77
2023/09/09 00:44:12;;;;;;;126.18;64.43;;;;;;;16.43;100.00;101756.09;5071939;28;20036;-77
2023/09/09 00:46:37;;;;;;;166.80;81.43;;;;;;;16.38;100.00;101747.66;5072108;28;20077;-77
2023/09/09 00:49:03;;;;;;;148.82;75.82;;;;;;;16.37;100.00;101749.47;5071586;28;20044;-78
2023/09/09 00:51:29;;;;;;;127.75;66.72;;;;;;;16.33;100.00;101744.59;5071528;28;20036;-78
2023/09/09 00:53:54;;;;;;;142.23;73.00;;;;;;;16.26;100.00;101744.38;5071981;28;20033;-77
2023/09/09 00:56:20;;;;;;;139.93;70.57;;;;;;;16.24;100.00;101750.88;5071275;28;20461;-77
2023/09/09 00:58:45;;;;;;;132.07;63.63;;;;;;;16.22;100.00;101746.50;5070654;28;20033;-77
2023/09/09 01:01:11;;;;;;;162.43;79.97;;;;;;;16.22;100.00;101743.81;5071368;28;20378;-78
2023/09/09 01:03:36;;;;;;;154.10;77.10;;;;;;;16.25;100.00;101750.72;5071889;28;20056;-77
2023/09/09 01:06:03;;;;;;;142.68;72.40;;;;;;;16.25;100.00;101747.22;5070537;28;20043;-77
2023/09/09 01:08:30;;;;;;;215.70;100.47;;;;;;;16.22;100.00;101749.19;5069924;28;20089;-77
2023/09/09 01:10:57;;;;;;;134.93;66.18;;;;;;;16.19;100.00;101744.13;5072167;28;20028;-77
2023/09/09 01:13:23;;;;;;;143.60;70.10;;;;;;;16.16;100.00;101744.44;5070102;28;20361;-77
2023/09/09 01:15:49;;;;;;;139.80;66.35;;;;;;;16.17;100.00;101746.13;5072483;28;20036;-77
2023/09/09 01:18:17;;;;;;;196.40;94.57;;;;;;;16.24;100.00;101753.56;5073476;28;20056;-77
2023/09/09 01:20:46;;;;;;;155.35;80.13;;;;;;;16.23;100.00;101747.38;5075305;28;20033;-77
2023/09/09 01:23:11;;;;;;;141.30;72.25;;;;;;;16.22;100.00;101743.81;5074921;28;20064;-78
2023/09/09 01:25:37;;;;;;;160.20;78.47;;;;;;;16.24;100.00;101737.47;5074961;28;20060;-77
2023/09/09 01:28:02;;;;;;;223.20;106.90;;;;;;;16.23;100.00;101739.31;5074848;28;20032;-77
2023/09/09 01:30:28;;;;;;;180.25;89.57;;;;;;;16.22;100.00;101735.75;5074667;28;20032;-77
2023/09/09 01:32:53;;;;;;;151.90;78.40;;;;;;;16.21;100.00;101744.84;5075051;28;20033;-77
2023/09/09 01:35:18;;;;;;;125.55;64.13;;;;;;;16.18;100.00;101737.09;5074513;28;20029;-77
2023/09/09 01:37:44;;;;;;;153.25;77.10;;;;;;;16.18;100.00;101738.91;5074797;28;20039;-77
2023/09/09 01:40:10;;;;;;;139.38;73.63;;;;;;;16.13;100.00;101733.19;5074919;28;20028;-77
2023/09/09 01:42:37;;;;;;;122.05;62.80;;;;;;;16.10;100.00;101738.84;5074410;28;20036;-77
2023/09/09 01:45:03;;;;;;;130.38;69.57;;;;;;;16.04;100.00;101734.94;5074807;28;20389;-77
2023/09/09 01:47:28;;;;;;;144.10;75.95;;;;;;;15.98;100.00;101731.00;5074359;28;20082;-77
2023/09/09 01:49:54;;;;;;;141.48;75.68;;;;;;;15.92;100.00;101730.81;5074650;28;20427;-77
2023/09/09 01:52:19;;;;;;;116.20;62.90;;;;;;;15.88;100.00;101727.56;5074235;28;20036;-77
2023/09/09 01:54:44;;;;;;;114.72;63.65;;;;;;;15.82;100.00;101737.09;5074738;28;20033;-77
2023/09/09 01:57:10;;;;;;;114.40;63.03;;;;;;;15.78;100.00;101735.69;5074950;28;20081;-77
2023/09/09 01:59:35;;;;;;;91.78;50.92;;;;;;;15.73;100.00;101740.63;5073701;28;20048;-77
2023/09/09 02:02:00;;;;;;;110.80;61.17;;;;;;;15.68;100.00;101733.03;5074513;28;20035;-77
2023/09/09 02:04:26;;;;;;;101.10;57.08;;;;;;;15.64;100.00;101734.31;5072753;28;20028;-77
2023/09/09 02:06:51;;;;;;;122.88;65.85;;;;;;;15.63;100.00;101731.78;5073164;28;20464;-76
2023/09/09 02:09:16;;;;;;;101.80;56.50;;;;;;;15.60;100.00;101740.13;5074310;28;20174;-77
2023/09/09 02:11:42;;;;;;;122.30;63.85;;;;;;;15.56;100.00;101734.25;5074251;28;20397;-77
2023/09/09 02:14:07;;;;;;;120.68;63.85;;;;;;;15.52;100.00;101733.72;5074325;28;20048;-77
2023/09/09 02:16:32;;;;;;;109.18;63.03;;;;;;;15.52;100.00;101736.38;5072485;28;20039;-77
2023/09/09 02:18:58;;;;;;;148.77;78.10;;;;;;;15.48;100.00;101740.34;5074154;28;20113;-77
2023/09/09 02:21:23;;;;;;;134.13;69.93;;;;;;;15.46;100.00;101738.81;5073771;28;20036;-77
2023/09/09 02:23:49;;;;;;;112.05;61.58;;;;;;;15.42;100.00;101740.97;5073888;28;20035;-77
2023/09/09 02:26:14;;;;;;;126.20;69.30;;;;;;;15.38;100.00;101728.84;5073222;28;20036;-77
2023/09/09 02:28:40;;;;;;;100.43;56.92;;;;;;;15.36;100.00;101728.16;5073533;28;20468;-77
2023/09/09 02:31:05;;;;;;;124.70;68.82;;;;;;;15.31;100.00;101725.88;5073974;28;20055;-77
2023/09/09 02:33:30;;;;;;;94.07;51.95;;;;;;;15.28;100.00;101728.03;5072248;28;20062;-77
2023/09/09 02:35:58;;;;;;;95.68;52.55;;;;;;;15.26;100.00;101732.72;5073830;28;20035;-76
2023/09/09 02:38:24;;;;;;;96.45;54.47;;;;;;;15.24;100.00;101727.50;5073078;28;20051;-77
2023/09/09 02:40:49;;;;;;;111.85;61.92;;;;;;;15.20;100.00;101723.41;5073766;28;20032;-76
2023/09/09 02:43:14;;;;;;;93.40;53.80;;;;;;;15.15;100.00;101720.31;5073798;28;20055;-77
2023/09/09 02:45:40;;;;;;;98.30;53.25;;;;;;;15.11;100.00;101717.09;5073397;28;20040;-77
2023/09/09 02:48:05;;;;;;;106.03;57.80;;;;;;;15.08;100.00;101719.25;5073623;28;20028;-77
2023/09/09 02:50:31;;;;;;;102.50;55.80;;;;;;;15.04;100.00;101721.34;5071715;28;20032;-77
2023/09/09 02:52:56;;;;;;;85.72;48.92;;;;;;;15.00;100.00;101722.63;5072252;28;20062;-76
2023/09/09 02:55:21;;;;;;;119.13;66.28;;;;;;;14.97;100.00;101718.44;5073442;28;20025;-76
2023/09/09 02:57:50;;;;;;;106.53;58.00;;;;;;;14.94;100.00;101715.19;5071919;28;20043;-77
2023/09/09 03:00:16;;;;;;;114.40;63.42;;;;;;;14.90;100.00;101719.16;5073262;28;20036;-76
2023/09/09 03:02:45;;;;;;;113.78;61.90;;;;;;;14.89;100.00;101714.78;5072697;28;20388;-76
2023/09/09 03:05:11;;;;;;;98.30;55.70;;;;;;;14.87;100.00;101722.97;5073345;28;20439;-77
2023/09/09 03:07:37;;;;;;;120.82;65.60;;;;;;;14.84;100.00;101719.72;5071802;28;20404;-76
2023/09/09 03:10:03;;;;;;;95.53;52.80;;;;;;;14.81;100.00;101719.03;5071538;28;20093;-76
2023/09/09 03:12:28;;;;;;;94.93;54.00;;;;;;;14.79;100.00;101722.84;5071652;28;20033;-77
2023/09/09 03:14:53;;;;;;;99.10;54.83;;;;;;;14.76;100.00;101717.78;5073397;28;20516;-76
2023/09/09 03:17:19;;;;;;;96.43;53.78;;;;;;;14.72;100.00;101725.28;5055378;28;20087;-76
2023/09/09 03:19:45;;;;;;;83.63;48.05;;;;;;;14.68;100.00;101723.03;5072703;28;20025;-76
2023/09/09 03:22:10;;;;;;;117.82;61.60;;;;;;;14.63;100.00;101720.78;5073199;28;20516;-77
2023/09/09 03:24:35;;;;;;;139.35;71.75;;;;;;;14.65;100.00;101724.16;5072632;28;20127;-77
2023/09/09 03:27:01;;;;;;;116.50;60.75;;;;;;;14.68;100.00;101723.03;5073059;28;20036;-76
2023/09/09 03:29:26;;;;;;;101.65;54.33;;;;;;;14.67;100.00;101718.66;5073030;28;20037;-77
2023/09/09 03:31:51;;;;;;;125.05;66.25;;;;;;;14.62;100.00;101719.09;5072660;28;20060;-76
2023/09/09 03:34:17;;;;;;;131.05;66.70;;;;;;;14.61;100.00;101720.06;5072854;28;20380;-76
2023/09/09 03:36:42;;;;;;;122.68;62.70;;;;;;;14.60;100.00;101721.03;5071311;28;20036;-76
2023/09/09 03:39:08;;;;;;;126.93;66.60;;;;;;;14.57;100.00;101718.63;5072376;28;20179;-76
2023/09/09 03:41:34;;;;;;;102.03;54.65;;;;;;;14.51;100.00;101717.41;5072361;28;20033;-77
2023/09/09 03:43:59;;;;;;;121.18;60.45;;;;;;;14.49;100.00;101715.84;5072785;28;20062;-77
2023/09/09 03:46:25;;;;;;;129.77;64.60;;;;;;;14.47;100.00;101716.00;5072755;28;20037;-76
2023/09/09 03:48:50;;;;;;;143.65;73.43;;;;;;;14.47;100.00;101726.69;5072358;28;20459;-76
2023/09/09 03:51:15;;;;;;;111.55;56.00;;;;;;;14.48;100.00;101727.53;5072659;28;20086;-77
2023/09/09 03:53:41;;;;;;;130.68;63.88;;;;;;;14.45;100.00;101726.84;5072261;28;20039;-75
2023/09/09 03:56:06;;;;;;;141.75;70.95;;;;;;;14.44;100.00;101733.19;5072400;28;20461;-75
2023/09/09 03:58:32;;;;;;;140.25;69.85;;;;;;;14.44;100.00;101727.81;5070771;28;20051;-78
2023/09/09 04:01:08;;;;;;;125.13;61.65;;;;;;;14.43;100.00;101727.97;5072290;28;20042;-78
2023/09/09 04:03:36;;;;;;;99.28;52.38;;;;;;;14.39;100.00;101730.09;5072275;28;20452;-77
2023/09/09 04:06:06;;;;;;;191.00;88.05;;;;;;;14.39;100.00;101735.44;5072552;28;20127;-77
2023/09/09 04:08:33;;;;;;;156.65;73.65;;;;;;;14.38;100.00;101733.75;5072701;28;20040;-78
2023/09/09 04:10:59;;;;;;;140.10;67.15;;;;;;;14.33;100.00;101733.34;5072190;28;20131;-77
2023/09/09 04:13:24;;;;;;;110.28;54.75;;;;;;;14.30;100.00;101730.91;5072521;28;20071;-77
2023/09/09 04:15:53;;;;;;;125.07;63.10;;;;;;;14.27;100.00;101731.22;5072040;28;20028;-77
2023/09/09 04:18:18;;;;;;;130.98;64.78;;;;;;;14.27;100.00;101739.22;5072221;28;20044;-77
2023/09/09 04:20:44;;;;;;;128.45;62.50;;;;;;;14.26;100.00;101741.06;5071761;28;20025;-77
2023/09/09 04:23:09;;;;;;;108.22;54.80;;;;;;;14.23;100.00;101732.50;5072246;28;20556;-77
2023/09/09 04:25:35;;;;;;;101.53;53.78;;;;;;;14.21;100.00;101734.44;5071203;28;20111;-78
2023/09/09 04:28:00;;;;;;;101.75;52.58;;;;;;;14.18;100.00;101724.03;5072612;28;20465;-77
2023/09/09 04:30:26;;;;;;;110.55;56.63;;;;;;;14.16;100.00;101734.88;5072319;28;20089;-77
2023/09/09 04:32:51;;;;;;;102.90;52.45;;;;;;;14.14;100.00;101739.53;5071786;28;20063;-77
2023/09/09 04:35:16;;;;;;;155.13;73.75;;;;;;;14.16;100.00;101742.06;5070850;28;20047;-77
2023/09/09 04:37:42;;;;;;;191.27;86.32;;;;;;;14.19;100.00;101741.78;5071591;28;20033;-77
2023/09/09 04:40:09;;;;;;;172.50;78.28;;;;;;;14.21;100.00;101745.16;5072218;28;20075;-77
2023/09/09 04:42:35;;;;;;;161.48;75.50;;;;;;;14.21;100.00;101748.69;5071851;28;20032;-77
2023/09/09 04:45:00;;;;;;;133.02;63.45;;;;;;;14.17;100.00;101744.59;5071760;28;20103;-77
2023/09/09 04:47:25;;;;;;;149.07;69.55;;;;;;;14.16;100.00;101742.91;5071918;28;20029;-78
2023/09/09 04:49:51;;;;;;;141.10;65.57;;;;;;;14.16;100.00;101739.41;5071740;28;20044;-78
2023/09/09 04:52:16;;;;;;;119.70;60.10;;;;;;;14.14;100.00;101752.91;5073640;28;20035;-77
2023/09/09 04:54:43;;;;;;;111.38;54.38;;;;;;;14.12;100.00;101749.53;5074337;28;20040;-78
2023/09/09 04:57:08;;;;;;;109.93;55.63;;;;;;;14.09;100.00;101747.13;5075775;28;20546;-78
2023/09/09 04:59:34;;;;;;;102.85;51.22;;;;;;;14.08;100.00;101748.97;5075650;28;20024;-78
2023/09/09 05:01:59;;;;;;;114.00;56.70;;;;;;;14.08;100.00;101753.47;5075339;28;20313;-77
2023/09/09 05:04:25;;;;;;;117.78;58.63;;;;;;;14.06;100.00;101755.44;5075711;28;20029;-77
2023/09/09 05:06:50;;;;;;;140.48;65.93;;;;;;;14.05;100.00;101757.28;5075283;28;20479;-78
2023/09/09 05:09:15;;;;;;;135.25;62.65;;;;;;;14.05;100.00;101757.28;5075892;28;20040;-77
2023/09/09 05:11:41;;;;;;;115.50;56.58;;;;;;;14.05;100.00;101759.94;5075237;28;20409;-77
2023/09/09 05:14:06;;;;;;;136.70;65.45;;;;;;;14.06;100.00;101763.47;5074045;28;20477;-77
2023/09/09 05:16:31;;;;;;;119.10;59.08;;;;;;;14.05;100.00;101764.47;5075557;28;20040;-77
2023/09/09 05:18:57;;;;;;;123.07;59.42;;;;;;;14.04;100.00;101754.75;5074993;28;20124;-78
2023/09/09 05:21:22;;;;;;;131.98;63.83;;;;;;;14.07;100.00;101762.50;5075409;28;20028;-77
2023/09/09 05:23:47;;;;;;;123.32;60.55;;;;;;;14.06;100.00;101756.31;5074971;28;20072;-77
2023/09/09 05:26:13;;;;;;;138.77;65.07;;;;;;;14.08;100.00;101753.47;5075551;28;20032;-77
2023/09/09 05:28:38;;;;;;;133.77;61.83;;;;;;;14.11;100.00;101754.03;5075200;28;20436;-77
2023/09/09 05:31:06;;;;;;;160.05;72.25;;;;;;;14.13;100.00;101758.41;5074824;28;20058;-77
2023/09/09 05:33:32;;;;;;;164.68;75.18;;;;;;;14.15;100.00;101749.25;5075214;28;20036;-77
2023/09/09 05:35:57;;;;;;;158.98;73.68;;;;;;;14.16;100.00;101745.59;5074768;28;20029;-77
2023/09/09 05:38:23;;;;;;;163.93;74.80;;;;;;;14.19;100.00;101755.16;5073886;28;20058;-77
2023/09/09 05:40:48;;;;;;;159.30;73.63;;;;;;;14.22;100.00;101754.88;5074576;28;20349;-78
2023/09/09 05:43:13;;;;;;;158.88;71.68;;;;;;;14.24;100.00;101750.22;5073460;28;20036;-77
2023/09/09 05:45:38;;;;;;;166.70;75.65;;;;;;;14.27;100.00;101760.66;5074538;28;20071;-77
2023/09/09 05:48:05;;;;;;;163.25;75.20;;;;;;;14.29;100.00;101756.84;5074346;28;20119;-77
2023/09/09 05:50:30;;;;;;;179.43;81.13;;;;;;;14.34;100.00;101758.28;5074772;28;20124;-77
2023/09/09 05:52:55;;;;;;;174.32;78.00;;;;;;;14.38;100.00;101755.16;5074222;28;20111;-77
2023/09/09 05:55:21;;;;;;;175.18;76.97;;;;;;;14.41;100.00;101754.88;5074733;28;20040;-75
2023/09/09 05:57:46;;;;;;;195.32;84.78;;;;;;;14.44;100.00;101751.91;5074669;28;20036;-75
2023/09/09 06:00:12;;;;;;;220.00;93.18;;;;;;;14.53;100.00;101763.59;5073899;28;20525;-75
2023/09/09 06:02:37;;;;;;;201.55;87.90;;;;;;;14.60;100.00;101763.88;5073975;28;20488;-76
2023/09/09 06:05:03;;;;;;;211.90;91.82;;;;;;;14.69;100.00;101764.88;5074053;28;20029;-75
2023/09/09 06:07:28;;;;;;;225.75;92.55;;;;;;;14.75;100.00;101775.00;5074541;28;20028;-75
2023/09/09 06:09:53;;;;;;;218.25;93.38;;;;;;;14.84;100.00;101773.31;5073416;28;20404;-75
2023/09/09 06:12:19;;;;;;;206.82;90.90;;;;;;;14.92;100.00;101778.81;5074116;28;20028;-75
2023/09/09 06:14:44;;;;;;;211.32;91.20;;;;;;;14.99;100.00;101780.75;5074366;28;20040;-75
2023/09/09 06:17:09;;;;;;;195.60;88.40;;;;;;;15.05;100.00;101783.84;5074190;28;20078;-75
2023/09/09 06:19:34;;;;;;;200.10;86.38;;;;;;;15.12;100.00;101780.44;5073005;28;20037;-75
2023/09/09 06:22:00;;;;;;;186.10;81.65;;;;;;;15.20;100.00;101784.22;5073803;28;20045;-75
2023/09/09 06:24:27;;;;;;;198.95;85.80;;;;;;;15.28;100.00;101784.34;5074208;28;20043;-76
2023/09/09 06:26:52;;;;;;;193.38;86.07;;;;;;;15.36;100.00;101786.28;5073673;28;20530;-76
2023/09/09 06:29:18;;;;;;;204.15;89.70;;;;;;;15.45;100.00;101788.94;5074024;28;20029;-75
2023/09/09 06:31:43;;;;;;;197.30;89.30;;;;;;;15.55;100.00;101785.34;5073973;28;20380;-76
2023/09/09 06:34:11;;;;;;;218.55;94.95;;;;;;;15.63;100.00;101783.63;5073375;28;20397;-76
2023/09/09 06:36:36;;;;;;;214.70;95.10;;;;;;;15.72;100.00;101789.94;5073509;28;20056;-75
2023/09/09 06:39:03;;;;;;;221.10;98.82;;;;;;;15.83;100.00;101792.41;5073231;28;20136;-75
2023/09/09 06:41:28;;;;;;;222.57;97.25;;;;;;;15.93;100.00;101796.88;5073822;28;20064;-75
2023/09/09 06:43:53;;;;;;;224.00;97.05;;;;;;;16.02;100.00;101804.03;5073348;28;20447;-76
2023/09/09 06:46:19;;;;;;;213.02;95.38;;;;;;;16.14;100.00;101802.81;5072326;28;20098;-75
2023/09/09 06:48:44;;;;;;;212.18;94.50;;;;;;;16.25;100.00;101804.44;5073631;28;20032;-75
2023/09/09 06:51:09;;;;;;;213.52;94.97;;;;;;;16.36;100.00;101806.91;5073373;28;20033;-75
2023/09/09 06:53:35;;;;;;;236.57;100.18;;;;;;;16.49;100.00;101811.03;5073635;28;20115;-75
2023/09/09 06:56:00;;;;;;;236.20;102.88;;;;;;;16.62;100.00;101810.66;5073079;28;20029;-75
2023/09/09 06:58:26;;;;;;;251.10;109.60;;;;;;;16.74;100.00;101812.09;5073409;28;20032;-76
2023/09/09 07:00:52;;;;;;;265.17;112.57;;;;;;;16.86;100.00;101812.69;5073381;28;20037;-78
2023/09/09 07:03:19;;;;;;;255.68;113.45;;;;;;;16.98;100.00;101814.13;5072678;28;20396;-75
2023/09/09 07:05:44;;;;;;;252.52;111.07;;;;;;;17.12;100.00;101812.69;5073335;28;20058;-76
2023/09/09 07:08:10;;;;;;;239.43;106.70;;;;;;;17.26;100.00;101816.66;5072923;28;20028;-77
2023/09/09 07:10:35;;;;;;;241.38;106.85;;;;;;;17.41;100.00;101811.53;5073053;28;20049;-76
2023/09/09 07:13:01;;;;;;;242.90;105.60;;;;;;;17.56;100.00;101815.28;5070997;28;20040;-76
2023/09/09 07:15:26;;;;;;;243.60;105.65;;;;;;;17.71;100.00;101820.91;5071428;28;20038;-77
2023/09/09 07:17:51;;;;;;;227.40;102.32;;;;;;;17.87;100.00;101821.97;5055009;28;20094;-76
2023/09/09 07:20:17;;;;;;;222.57;100.30;;;;;;;18.00;100.00;101816.16;5072584;28;20344;-76
2023/09/09 07:22:42;;;;;;;227.25;102.43;;;;;;;18.13;100.00;101822.75;5073094;28;20041;-77
2023/09/09 07:25:08;;;;;;;209.45;97.05;;;;;;;18.26;100.00;101824.13;5072684;28;20033;-77
2023/09/09 07:27:34;;;;;;;218.57;99.03;;;;;;;18.40;100.00;101826.16;5071764;28;20051;-76
2023/09/09 07:29:59;;;;;;;200.20;98.82;;;;;;;18.51;100.00;101827.66;5072508;28;20032;-77
2023/09/09 07:32:25;;;;;;;204.15;97.50;;;;;;;18.64;100.00;101833.41;5073187;28;20111;-76
2023/09/09 07:34:50;;;;;;;193.38;95.43;;;;;;;18.75;100.00;101828.69;5072965;28;20062;-77
2023/09/09 07:37:16;;;;;;;179.32;89.28;;;;;;;18.87;100.00;101826.53;5072451;28;20441;-76
2023/09/09 07:39:51;;;;;;;175.35;89.03;;;;;;;18.98;100.00;101834.28;5073021;28;20035;-76
2023/09/09 07:42:17;;;;;;;161.07;85.82;;;;;;;19.07;100.00;101829.72;5072343;28;20060;-77
2023/09/09 07:44:43;;;;;;;144.55;80.45;;;;;;;19.15;100.00;101829.69;5072425;28;20472;-77
2023/09/09 07:47:09;;;;;;;126.40;72.18;;;;;;;19.28;100.00;101834.56;5070986;28;20051;-77
2023/09/09 07:49:35;;;;;;;117.97;66.22;;;;;;;19.38;100.00;101830.63;5072584;28;20036;-76
2023/09/09 07:52:02;;;;;;;111.47;65.80;;;;;;;19.53;100.00;101829.94;5072633;28;20029;-77
2023/09/09 07:54:28;;;;;;;113.20;64.95;;;;;;;19.65;100.00;101836.63;5072689;28;20040;-76
2023/09/09 07:56:54;;;;;;;97.22;59.45;;;;;;;19.84;100.00;101832.69;5072666;28;20387;-77
2023/09/09 07:59:19;;;;;;;92.32;57.85;;;;;;;20.01;100.00;101827.22;5072110;28;20037;-77
2023/09/09 08:01:45;;;;;;;93.28;57.35;;;;;;;20.19;100.00;101826.94;5072641;28;20021;-77
2023/09/09 08:04:10;;;;;;;84.05;53.75;;;;;;;20.33;100.00;101825.31;5072118;28;20041;-77
2023/09/09 08:06:36;;;;;;;82.40;54.38;;;;;;;20.48;100.00;101817.25;5072677;28;20055;-76
2023/09/09 08:09:02;;;;;;;73.70;48.92;;;;;;;20.65;100.00;101813.41;5072581;28;20032;-77
2023/09/09 08:11:27;;;;;;;65.88;41.63;;;;;;;20.90;100.00;101811.34;5072099;28;20595;-77
2023/09/09 08:13:52;;;;;;;56.30;39.25;;;;;;;21.31;100.00;101821.72;5072381;28;20029;-76
2023/09/09 08:16:18;;;;;;;56.60;37.88;;;;;;;21.71;100.00;101816.03;5072104;28;20480;-77
2023/09/09 08:18:43;;;;;;;56.78;39.08;;;;;;;22.05;100.00;101813.72;5072549;28;20025;-77
2023/09/09 08:21:10;;;;;;;49.55;35.72;;;;;;;22.28;100.00;101816.25;5072245;28;20036;-76
2023/09/09 08:23:36;;;;;;;52.63;36.47;;;;;;;22.55;100.00;101814.66;5072284;28;20037;-76
2023/09/09 08:26:01;;;;;;;52.03;36.72;;;;;;;22.79;100.00;101821.53;5075042;28;20043;-77
2023/09/09 08:28:27;;;;;;;43.60;31.13;;;;;;;23.02;100.00;101815.88;5076141;28;20123;-77
2023/09/09 08:31:02;;;;;;;38.92;28.67;;;;;;;23.26;100.00;101819.19;5076724;28;20037;-77
2023/09/09 08:33:28;;;;;;;39.28;27.58;;;;;;;23.54;100.00;101818.28;5075653;28;20377;-77
2023/09/09 08:36:01;;;;;;;32.88;26.30;;;;;;;23.81;100.00;101815.66;5076350;28;20031;-77
2023/09/09 08:38:26;;;;;;;30.23;21.85;;;;;;;24.07;100.00;101818.50;5075657;28;20074;-77
2023/09/09 08:41:04;;;;;;;28.65;20.23;;;;;;;24.41;100.00;101819.41;5076232;28;20028;-77
2023/09/09 08:43:45;;;;;;;26.63;20.70;;;;;;;24.90;100.00;101821.94;5075888;28;20025;-77
2023/09/09 08:46:17;;;;;;;27.35;19.77;;;;;;;25.39;100.00;101828.78;5075557;28;20063;-78
2023/09/09 08:48:43;;;;;;;31.73;19.80;;;;;;;26.01;100.00;101822.91;5076105;28;20032;-77
2023/09/09 08:51:13;;;;;;;23.13;18.35;;;;;;;26.61;100.00;101827.94;5076258;28;20484;-78
2023/09/09 08:53:43;;;;;;;28.08;19.08;;;;;;;27.11;100.00;101829.81;5076021;28;20054;-78
2023/09/09 08:56:12;;;;;;;23.65;16.63;;;;;;;27.70;100.00;101826.66;5074741;28;20032;-77
2023/09/09 08:58:40;;;;;;;23.33;16.92;;;;;;;28.05;94.56;101836.91;5076103;28;20028;-78
2023/09/09 09:01:05;;;;;;;21.55;15.57;;;;;;;28.72;84.17;101824.97;5075589;28;20111;-77
2023/09/09 09:03:33;;;;;;;20.25;15.65;;;;;;;29.07;80.48;101833.19;5075561;28;20335;-78
2023/09/09 09:06:02;;;;;;;14.38;11.85;;;;;;;29.22;82.66;101831.91;5075696;28;20358;-77
2023/09/09 09:08:27;;;;;;;38.33;29.02;;;;;;;29.46;100.00;101829.94;5075358;28;20052;-77
2023/09/09 09:10:55;;;;;;;37.17;28.75;;;;;;;29.56;100.00;101832.91;5075396;28;20477;-78
2023/09/09 09:13:21;;;;;;;37.05;27.90;;;;;;;29.77;100.00;101833.28;5075336;28;20029;-78
2023/09/09 09:15:46;;;;;;;42.53;27.17;;;;;;;29.99;100.00;101834.31;5075632;28;20412;-77
2023/09/09 09:18:12;;;;;;;31.63;25.33;;;;;;;30.35;100.00;101834.97;5074315;28;20452;-78
2023/09/09 09:20:40;;;;;;;31.48;24.27;;;;;;;30.51;100.00;101840.72;5074985;28;20373;-78
2023/09/09 09:23:09;;;;;;;32.22;25.52;;;;;;;30.52;96.34;101834.16;5075626;28;20540;-78
2023/09/09 09:25:44;;;;;;;29.50;24.13;;;;;;;30.69;100.00;101845.13;5075111;28;20063;-77
2023/09/09 09:28:11;;;;;;;28.63;23.60;;;;;;;30.76;95.68;101843.88;5075724;28;20103;-77
2023/09/09 09:30:37;;;;;;;34.70;25.58;;;;;;;30.89;78.88;101841.88;5074975;28;20500;-78
2023/09/09 09:33:02;;;;;;;30.95;24.42;;;;;;;31.03;77.19;101843.22;5075133;28;20024;-78
2023/09/09 09:35:30;;;;;;;31.83;21.50;;;;;;;31.13;87.93;101845.28;5074850;28;20028;-78
2023/09/09 09:38:01;;;;;;;26.48;21.13;;;;;;;31.27;91.99;101838.31;5074477;28;20025;-77
2023/09/09 09:40:30;;;;;;;27.17;20.98;;;;;;;31.26;94.70;101842.16;5073404;28;20035;-78
2023/09/09 09:42:56;;;;;;;29.58;19.58;;;;;;;31.40;91.55;101833.53;5073967;28;20421;-78
2023/09/09 09:45:28;;;;;;;24.30;20.30;;;;;;;31.64;90.16;101836.88;5074777;28;20067;-78
2023/09/09 09:47:55;;;;;;;27.02;19.23;;;;;;;31.81;80.71;101834.03;5073871;28;20059;-78
2023/09/09 09:50:28;;;;;;;20.70;17.67;;;;;;;31.93;82.25;101842.16;5074619;28;20103;-79
2023/09/09 09:53:07;;;;;;;23.38;19.33;;;;;;;31.98;79.49;101836.72;5074873;28;20025;-77
2023/09/09 09:55:34;;;;;;;20.00;17.85;;;;;;;31.87;76.39;101833.00;5074341;28;20070;-78
2023/09/09 09:58:04;;;;;;;31.80;18.00;;;;;;;31.81;75.11;101834.03;5074912;28;20032;-77
2023/09/09 10:00:30;;;;;;;;;;;;;;;32.18;75.80;101827.84;5074730;28;20115;-77
2023/09/09 10:02:57;;;;;;;19.33;14.50;;;;;;;32.31;64.09;101830.16;5074822;28;19944;-77
2023/09/09 10:05:25;;;;;;;20.35;15.00;;;;;;;32.34;60.42;101826.06;5074338;28;20043;-77
2023/09/09 10:08:20;;;;;;;13.75;12.27;;;;;;;32.28;70.31;101821.63;5074842;28;20029;-77
2023/09/09 10:11:17;;;;;;;20.65;12.45;;;;;;;32.40;63.76;101826.94;5074142;28;20052;-77
2023/09/09 10:14:14;;;;;;;15.77;12.45;;;;;;;32.44;60.90;101828.06;5069585;28;20087;-77
2023/09/09 10:16:42;;;;;;;21.23;12.50;;;;;;;32.58;57.79;101823.78;5069159;28;20119;-77
2023/09/09 10:19:08;;;;;;;12.63;11.32;;;;;;;32.69;65.36;101825.56;5074388;28;20028;-77
2023/09/09 10:21:34;;;;;;;18.38;11.75;;;;;;;32.90;61.75;101820.16;5072810;28;20036;-77
2023/09/09 10:24:01;;;;;;;11.68;10.18;;;;;;;33.10;65.91;101829.63;5073447;28;20033;-77
2023/09/09 10:26:27;;;;;;;22.00;12.57;;;;;;;33.00;57.42;101828.47;5073908;28;20028;-77
2023/09/09 10:28:54;;;;;;;14.77;10.77;;;;;;;33.03;62.35;101825.19;5074755;28;20362;-77
2023/09/09 10:31:19;;;;;;;15.95;11.15;;;;;;;32.97;58.35;101822.69;5073075;28;20062;-77
2023/09/09 10:33:47;;;;;;;23.50;11.32;;;;;;;32.84;61.15;101824.81;5073736;28;20125;-77
2023/09/09 10:36:14;;;;;;;24.88;12.88;;;;;;;32.73;58.77;101828.59;5074039;28;20029;-78
2023/09/09 10:38:39;;;;;;;22.65;12.80;;;;;;;32.57;60.77;101821.28;5073495;28;20067;-77
2023/09/09 10:41:06;;;;;;;14.57;12.00;;;;;;;32.47;64.57;101825.63;5073880;28;20480;-77
2023/09/09 10:43:31;;;;;;;14.02;11.25;;;;;;;32.19;68.17;101818.50;5073833;28;20036;-76
2023/09/09 10:45:57;;;;;;;13.57;10.25;;;;;;;32.26;65.71;101819.13;5073535;28;20446;-76
2023/09/09 10:48:24;;;;;;;21.08;11.50;;;;;;;32.36;63.06;101821.13;5071500;28;20038;-76
2023/09/09 10:50:52;;;;;;;13.93;12.00;;;;;;;32.14;63.41;101823.94;5073194;28;20046;-76
2023/09/09 10:53:22;;;;;;;17.88;11.35;;;;;;;32.19;67.83;101815.75;5073675;28;20028;-76